EGDR

RNAS Culdrose Airport

Helston, United Kingdom
METAR EGDR 231350Z 10018G30KT 9999 SCT030 05/M01 Q1015 BLU TEMPO 6000 HZ BKN025 WHT
Observed Flight Rules
Feb-23 @ 13:50 UTC (49 minutes ago) Visual Flight Rules
Wind Visibility Clouds
100° at 18 knots
 Gusting to 30 knots
10,000+ meters
  • Scattered at 3,000' AGL
Temperatures Readings
Current 5°C / 41°F
Dewpoint -1°C / 30°F
Humidity 66%
Altimeter 29.97" Hg
Pressure 1015 hPa
Elevation 82
METAR EGDR 231350Z 10018G30KT 9999 SCT030 05/M01 Q1015 BLU TEMPO 6000 HZ BKN025 WHT
Observed Flight Rules
Feb-23 @ 13:50 UTC
(49 minutes ago)
VFR
Wind Visibility
100° at 18 knots
 Gusting to 30 knots
10,000+ meters
Clouds
  • Scattered at 3,000' AGL
Temperature Dewpoint
5°C / 41°F -1°C / 30°F
Humidity Altimeter Pressure
66% 29.97" Hg 1015 hPa